Sanford, Florida
Current Conditions -  °F | °C
As of 3:53 PM on Tuesday 21 Oct 2014 (Local Time) from KSFB Reporting Station
Clear Clear  
Wind Chill: 83°   Ceiling: Unl
Heat Index: 85°   Visibility: 10mi
Dew Point: 66°   Wind: 9mph
Humidity: 56%   Direction: 10°N
Pressure: 29.91"   Gusts: NA
Location:  28.81°N, 81.27°W
Report Text: KSFB 211953Z 01008KT 10SM CLR 28/19 A2991 RMK AO2 SLP125 T02830189
Loading
Personal Weather Stations






























Interactive Weather Map
Tropical Storm Tracking
New forecast layout! Learn more

10-Day Weather Forecast

Advertisements
Track Severe Weather on mobile